sensor_id;sensor_type;location;lat;lon;timestamp;P1;durP1;ratioP1;P2;durP2;ratioP2
64225;SDS011;50545;56.064;26.178;2022-11-14T00:01:10;0.70;;;0.70;;
64225;SDS011;50545;56.064;26.178;2022-11-14T00:03:38;0.68;;;0.68;;
64225;SDS011;50545;56.064;26.178;2022-11-14T00:06:06;0.63;;;0.60;;
64225;SDS011;50545;56.064;26.178;2022-11-14T00:08:34;1.17;;;1.00;;
64225;SDS011;50545;56.064;26.178;2022-11-14T00:11:02;0.77;;;0.77;;
64225;SDS011;50545;56.064;26.178;2022-11-14T00:13:29;1.10;;;0.90;;
64225;SDS011;50545;56.064;26.178;2022-11-14T00:15:56;0.68;;;0.68;;
64225;SDS011;50545;56.064;26.178;2022-11-14T00:18:23;1.33;;;0.80;;
64225;SDS011;50545;56.064;26.178;2022-11-14T00:20:51;0.73;;;0.57;;
64225;SDS011;50545;56.064;26.178;2022-11-14T00:23:19;1.10;;;1.00;;
64225;SDS011;50545;56.064;26.178;2022-11-14T00:25:47;0.90;;;0.80;;
64225;SDS011;50545;56.064;26.178;2022-11-14T00:28:15;1.38;;;0.90;;
64225;SDS011;50545;56.064;26.178;2022-11-14T00:30:45;0.73;;;0.73;;
64225;SDS011;50545;56.064;26.178;2022-11-14T00:33:13;1.13;;;0.80;;
64225;SDS011;50545;56.064;26.178;2022-11-14T00:35:52;1.75;;;0.82;;
64225;SDS011;50545;56.064;26.178;2022-11-14T00:38:21;1.25;;;1.00;;
64225;SDS011;50545;56.064;26.178;2022-11-14T00:40:49;0.70;;;0.70;;
64225;SDS011;50545;56.064;26.178;2022-11-14T00:43:16;1.23;;;0.80;;
64225;SDS011;50545;56.064;26.178;2022-11-14T00:45:44;0.85;;;0.80;;
64225;SDS011;50545;56.064;26.178;2022-11-14T00:48:12;0.77;;;0.73;;
64225;SDS011;50545;56.064;26.178;2022-11-14T00:50:40;1.20;;;0.90;;
64225;SDS011;50545;56.064;26.178;2022-11-14T00:53:08;1.08;;;0.82;;
64225;SDS011;50545;56.064;26.178;2022-11-14T00:55:35;1.10;;;1.00;;
64225;SDS011;50545;56.064;26.178;2022-11-14T00:58:03;1.65;;;0.80;;
64225;SDS011;50545;56.064;26.178;2022-11-14T01:00:30;1.77;;;1.00;;
64225;SDS011;50545;56.064;26.178;2022-11-14T01:02:57;0.93;;;0.80;;
64225;SDS011;50545;56.064;26.178;2022-11-14T01:05:25;0.80;;;0.80;;
64225;SDS011;50545;56.064;26.178;2022-11-14T01:07:53;0.75;;;0.75;;
64225;SDS011;50545;56.064;26.178;2022-11-14T01:10:20;1.17;;;1.00;;
64225;SDS011;50545;56.064;26.178;2022-11-14T01:12:47;0.73;;;0.70;;
64225;SDS011;50545;56.064;26.178;2022-11-14T01:15:15;0.88;;;0.80;;
64225;SDS011;50545;56.064;26.178;2022-11-14T01:17:42;1.90;;;0.98;;
64225;SDS011;50545;56.064;26.178;2022-11-14T01:20:09;1.15;;;0.95;;
64225;SDS011;50545;56.064;26.178;2022-11-14T01:22:37;1.00;;;0.90;;
64225;SDS011;50545;56.064;26.178;2022-11-14T01:25:04;1.10;;;0.70;;
64225;SDS011;50545;56.064;26.178;2022-11-14T01:27:31;1.23;;;0.88;;
64225;SDS011;50545;56.064;26.178;2022-11-14T01:29:59;2.47;;;0.82;;
64225;SDS011;50545;56.064;26.178;2022-11-14T01:32:26;0.60;;;0.60;;
64225;SDS011;50545;56.064;26.178;2022-11-14T01:34:53;0.65;;;0.65;;
64225;SDS011;50545;56.064;26.178;2022-11-14T01:37:20;0.63;;;0.60;;
64225;SDS011;50545;56.064;26.178;2022-11-14T01:39:48;0.85;;;0.75;;
64225;SDS011;50545;56.064;26.178;2022-11-14T01:42:16;0.60;;;0.60;;
64225;SDS011;50545;56.064;26.178;2022-11-14T01:44:48;0.85;;;0.57;;
64225;SDS011;50545;56.064;26.178;2022-11-14T01:47:22;1.35;;;0.88;;
64225;SDS011;50545;56.064;26.178;2022-11-14T01:49:53;1.27;;;0.70;;
64225;SDS011;50545;56.064;26.178;2022-11-14T01:52:35;0.80;;;0.80;;
64225;SDS011;50545;56.064;26.178;2022-11-14T01:55:06;0.60;;;0.60;;
64225;SDS011;50545;56.064;26.178;2022-11-14T01:57:39;1.20;;;0.98;;
64225;SDS011;50545;56.064;26.178;2022-11-14T02:00:11;2.20;;;0.90;;
64225;SDS011;50545;56.064;26.178;2022-11-14T02:02:39;1.38;;;0.90;;
64225;SDS011;50545;56.064;26.178;2022-11-14T02:05:09;0.55;;;0.50;;
64225;SDS011;50545;56.064;26.178;2022-11-14T02:07:40;0.52;;;0.52;;
64225;SDS011;50545;56.064;26.178;2022-11-14T02:10:09;0.70;;;0.70;;
64225;SDS011;50545;56.064;26.178;2022-11-14T02:12:41;1.50;;;0.90;;
64225;SDS011;50545;56.064;26.178;2022-11-14T02:15:09;1.77;;;0.77;;
64225;SDS011;50545;56.064;26.178;2022-11-14T02:17:37;0.85;;;0.60;;
64225;SDS011;50545;56.064;26.178;2022-11-14T02:22:37;0.80;;;0.70;;
64225;SDS011;50545;56.064;26.178;2022-11-14T02:25:06;0.73;;;0.70;;
64225;SDS011;50545;56.064;26.178;2022-11-14T02:27:35;1.00;;;0.90;;
64225;SDS011;50545;56.064;26.178;2022-11-14T02:30:05;1.23;;;0.77;;
64225;SDS011;50545;56.064;26.178;2022-11-14T02:32:35;0.60;;;0.60;;
64225;SDS011;50545;56.064;26.178;2022-11-14T02:35:22;0.93;;;0.55;;
64225;SDS011;50545;56.064;26.178;2022-11-14T02:37:50;1.00;;;0.70;;
64225;SDS011;50545;56.064;26.178;2022-11-14T02:40:17;0.60;;;0.60;;
64225;SDS011;50545;56.064;26.178;2022-11-14T02:42:45;1.05;;;0.70;;
64225;SDS011;50545;56.064;26.178;2022-11-14T02:45:12;0.45;;;0.45;;
64225;SDS011;50545;56.064;26.178;2022-11-14T02:47:39;0.70;;;0.70;;
64225;SDS011;50545;56.064;26.178;2022-11-14T02:50:07;0.50;;;0.50;;
64225;SDS011;50545;56.064;26.178;2022-11-14T02:52:34;1.58;;;0.80;;
64225;SDS011;50545;56.064;26.178;2022-11-14T02:55:02;0.73;;;0.57;;
64225;SDS011;50545;56.064;26.178;2022-11-14T02:57:30;1.95;;;0.60;;
64225;SDS011;50545;56.064;26.178;2022-11-14T02:59:57;1.58;;;0.70;;
64225;SDS011;50545;56.064;26.178;2022-11-14T03:02:24;2.75;;;0.80;;
64225;SDS011;50545;56.064;26.178;2022-11-14T03:04:51;0.50;;;0.50;;
64225;SDS011;50545;56.064;26.178;2022-11-14T03:07:19;0.98;;;0.70;;
64225;SDS011;50545;56.064;26.178;2022-11-14T03:09:46;0.70;;;0.70;;
64225;SDS011;50545;56.064;26.178;2022-11-14T03:12:17;2.03;;;0.73;;
64225;SDS011;50545;56.064;26.178;2022-11-14T03:14:45;0.63;;;0.63;;
64225;SDS011;50545;56.064;26.178;2022-11-14T03:17:12;0.57;;;0.57;;
64225;SDS011;50545;56.064;26.178;2022-11-14T03:19:39;0.60;;;0.60;;
64225;SDS011;50545;56.064;26.178;2022-11-14T03:22:07;0.70;;;0.50;;
64225;SDS011;50545;56.064;26.178;2022-11-14T03:24:34;0.40;;;0.40;;
64225;SDS011;50545;56.064;26.178;2022-11-14T03:27:01;0.52;;;0.52;;
64225;SDS011;50545;56.064;26.178;2022-11-14T03:29:28;1.40;;;0.50;;
64225;SDS011;50545;56.064;26.178;2022-11-14T03:31:55;0.60;;;0.60;;
64225;SDS011;50545;56.064;26.178;2022-11-14T03:34:23;0.63;;;0.63;;
64225;SDS011;50545;56.064;26.178;2022-11-14T03:36:50;1.23;;;0.80;;
64225;SDS011;50545;56.064;26.178;2022-11-14T03:39:17;0.73;;;0.60;;
64225;SDS011;50545;56.064;26.178;2022-11-14T03:41:44;0.93;;;0.60;;
64225;SDS011;50545;56.064;26.178;2022-11-14T03:44:11;0.70;;;0.68;;
64225;SDS011;50545;56.064;26.178;2022-11-14T03:46:39;1.00;;;0.90;;
64225;SDS011;50545;56.064;26.178;2022-11-14T03:49:06;0.57;;;0.57;;
64225;SDS011;50545;56.064;26.178;2022-11-14T03:51:33;1.00;;;0.88;;
64225;SDS011;50545;56.064;26.178;2022-11-14T03:54:00;0.52;;;0.52;;
64225;SDS011;50545;56.064;26.178;2022-11-14T03:56:28;0.70;;;0.70;;
64225;SDS011;50545;56.064;26.178;2022-11-14T03:58:55;0.73;;;0.60;;
64225;SDS011;50545;56.064;26.178;2022-11-14T04:01:22;0.47;;;0.45;;
64225;SDS011;50545;56.064;26.178;2022-11-14T04:03:49;0.73;;;0.73;;
64225;SDS011;50545;56.064;26.178;2022-11-14T04:06:16;0.63;;;0.63;;
64225;SDS011;50545;56.064;26.178;2022-11-14T04:08:43;0.60;;;0.50;;
64225;SDS011;50545;56.064;26.178;2022-11-14T04:11:11;0.50;;;0.50;;
64225;SDS011;50545;56.064;26.178;2022-11-14T04:13:38;0.43;;;0.43;;
64225;SDS011;50545;56.064;26.178;2022-11-14T04:16:05;0.52;;;0.52;;
64225;SDS011;50545;56.064;26.178;2022-11-14T04:18:33;0.60;;;0.60;;
64225;SDS011;50545;56.064;26.178;2022-11-14T04:21:01;0.40;;;0.40;;
64225;SDS011;50545;56.064;26.178;2022-11-14T04:23:28;0.70;;;0.70;;
64225;SDS011;50545;56.064;26.178;2022-11-14T04:25:56;0.35;;;0.35;;
64225;SDS011;50545;56.064;26.178;2022-11-14T04:28:23;0.50;;;0.50;;
64225;SDS011;50545;56.064;26.178;2022-11-14T04:30:51;0.55;;;0.50;;
64225;SDS011;50545;56.064;26.178;2022-11-14T04:33:18;0.85;;;0.55;;
64225;SDS011;50545;56.064;26.178;2022-11-14T04:35:46;0.50;;;0.50;;
64225;SDS011;50545;56.064;26.178;2022-11-14T04:38:14;0.60;;;0.60;;
64225;SDS011;50545;56.064;26.178;2022-11-14T04:40:49;0.50;;;0.50;;
64225;SDS011;50545;56.064;26.178;2022-11-14T04:43:17;0.60;;;0.55;;
64225;SDS011;50545;56.064;26.178;2022-11-14T04:45:45;0.80;;;0.80;;
64225;SDS011;50545;56.064;26.178;2022-11-14T04:48:13;0.50;;;0.50;;
64225;SDS011;50545;56.064;26.178;2022-11-14T04:50:40;0.50;;;0.50;;
64225;SDS011;50545;56.064;26.178;2022-11-14T04:53:07;0.75;;;0.63;;
64225;SDS011;50545;56.064;26.178;2022-11-14T04:55:35;2.17;;;0.80;;
64225;SDS011;50545;56.064;26.178;2022-11-14T04:58:02;0.70;;;0.70;;
64225;SDS011;50545;56.064;26.178;2022-11-14T05:00:29;1.08;;;0.98;;
64225;SDS011;50545;56.064;26.178;2022-11-14T05:02:57;0.60;;;0.60;;
64225;SDS011;50545;56.064;26.178;2022-11-14T05:05:25;1.00;;;0.98;;
64225;SDS011;50545;56.064;26.178;2022-11-14T05:07:56;0.70;;;0.70;;
64225;SDS011;50545;56.064;26.178;2022-11-14T05:10:24;0.47;;;0.47;;
64225;SDS011;50545;56.064;26.178;2022-11-14T05:12:52;0.88;;;0.88;;
64225;SDS011;50545;56.064;26.178;2022-11-14T05:15:19;0.70;;;0.68;;
64225;SDS011;50545;56.064;26.178;2022-11-14T05:17:47;0.50;;;0.50;;
64225;SDS011;50545;56.064;26.178;2022-11-14T05:20:14;0.50;;;0.50;;
64225;SDS011;50545;56.064;26.178;2022-11-14T05:22:42;0.73;;;0.60;;
64225;SDS011;50545;56.064;26.178;2022-11-14T05:25:09;0.60;;;0.60;;
64225;SDS011;50545;56.064;26.178;2022-11-14T05:27:37;0.63;;;0.63;;
64225;SDS011;50545;56.064;26.178;2022-11-14T05:30:04;1.02;;;0.80;;
64225;SDS011;50545;56.064;26.178;2022-11-14T05:32:32;0.85;;;0.80;;
64225;SDS011;50545;56.064;26.178;2022-11-14T05:34:59;1.83;;;0.85;;
64225;SDS011;50545;56.064;26.178;2022-11-14T05:37:26;0.70;;;0.70;;
64225;SDS011;50545;56.064;26.178;2022-11-14T05:39:53;0.88;;;0.88;;
64225;SDS011;50545;56.064;26.178;2022-11-14T05:42:21;1.00;;;0.88;;
64225;SDS011;50545;56.064;26.178;2022-11-14T05:44:48;1.58;;;1.20;;
64225;SDS011;50545;56.064;26.178;2022-11-14T05:47:15;0.73;;;0.73;;
64225;SDS011;50545;56.064;26.178;2022-11-14T05:49:42;0.98;;;0.88;;
64225;SDS011;50545;56.064;26.178;2022-11-14T05:52:10;1.40;;;1.20;;
64225;SDS011;50545;56.064;26.178;2022-11-14T05:54:37;1.00;;;0.90;;
64225;SDS011;50545;56.064;26.178;2022-11-14T05:57:04;0.75;;;0.75;;
64225;SDS011;50545;56.064;26.178;2022-11-14T05:59:32;0.60;;;0.60;;
64225;SDS011;50545;56.064;26.178;2022-11-14T06:01:59;2.45;;;1.63;;
64225;SDS011;50545;56.064;26.178;2022-11-14T06:04:26;1.30;;;0.90;;
64225;SDS011;50545;56.064;26.178;2022-11-14T06:06:53;0.90;;;0.90;;
64225;SDS011;50545;56.064;26.178;2022-11-14T06:09:20;1.45;;;1.13;;
64225;SDS011;50545;56.064;26.178;2022-11-14T06:11:48;1.13;;;1.00;;
64225;SDS011;50545;56.064;26.178;2022-11-14T06:14:15;1.17;;;1.08;;
64225;SDS011;50545;56.064;26.178;2022-11-14T06:16:42;0.70;;;0.70;;
64225;SDS011;50545;56.064;26.178;2022-11-14T06:19:09;1.10;;;1.00;;
64225;SDS011;50545;56.064;26.178;2022-11-14T06:21:36;1.88;;;0.95;;
64225;SDS011;50545;56.064;26.178;2022-11-14T06:24:03;1.15;;;1.00;;
64225;SDS011;50545;56.064;26.178;2022-11-14T06:26:31;0.47;;;0.47;;
64225;SDS011;50545;56.064;26.178;2022-11-14T06:28:58;4.95;;;2.70;;
64225;SDS011;50545;56.064;26.178;2022-11-14T06:31:26;5.15;;;3.22;;
64225;SDS011;50545;56.064;26.178;2022-11-14T06:33:53;0.38;;;0.38;;
64225;SDS011;50545;56.064;26.178;2022-11-14T06:36:22;4.43;;;2.95;;
64225;SDS011;50545;56.064;26.178;2022-11-14T06:38:49;4.45;;;2.58;;
64225;SDS011;50545;56.064;26.178;2022-11-14T06:41:17;3.40;;;1.85;;
64225;SDS011;50545;56.064;26.178;2022-11-14T06:43:47;1.15;;;0.77;;
64225;SDS011;50545;56.064;26.178;2022-11-14T06:46:17;0.73;;;0.65;;
64225;SDS011;50545;56.064;26.178;2022-11-14T06:48:45;1.38;;;1.02;;
64225;SDS011;50545;56.064;26.178;2022-11-14T06:51:14;1.17;;;0.98;;
64225;SDS011;50545;56.064;26.178;2022-11-14T06:53:42;1.67;;;1.13;;
64225;SDS011;50545;56.064;26.178;2022-11-14T06:56:14;0.77;;;0.77;;
64225;SDS011;50545;56.064;26.178;2022-11-14T06:58:44;0.82;;;0.82;;
64225;SDS011;50545;56.064;26.178;2022-11-14T07:01:14;0.88;;;0.82;;
64225;SDS011;50545;56.064;26.178;2022-11-14T07:03:49;0.77;;;0.70;;
64225;SDS011;50545;56.064;26.178;2022-11-14T07:06:20;0.77;;;0.77;;
64225;SDS011;50545;56.064;26.178;2022-11-14T07:08:49;0.70;;;0.70;;
64225;SDS011;50545;56.064;26.178;2022-11-14T07:11:18;0.57;;;0.57;;
64225;SDS011;50545;56.064;26.178;2022-11-14T07:16:19;0.57;;;0.57;;
64225;SDS011;50545;56.064;26.178;2022-11-14T07:18:57;0.70;;;0.70;;
64225;SDS011;50545;56.064;26.178;2022-11-14T07:21:25;0.88;;;0.82;;
64225;SDS011;50545;56.064;26.178;2022-11-14T07:23:53;1.00;;;0.93;;
64225;SDS011;50545;56.064;26.178;2022-11-14T07:26:21;0.80;;;0.80;;
64225;SDS011;50545;56.064;26.178;2022-11-14T07:28:49;1.30;;;1.20;;
64225;SDS011;50545;56.064;26.178;2022-11-14T07:31:21;0.90;;;0.90;;
64225;SDS011;50545;56.064;26.178;2022-11-14T07:33:49;1.17;;;0.80;;
64225;SDS011;50545;56.064;26.178;2022-11-14T07:36:16;1.42;;;1.30;;
64225;SDS011;50545;56.064;26.178;2022-11-14T07:38:44;1.20;;;1.08;;
64225;SDS011;50545;56.064;26.178;2022-11-14T07:41:12;0.98;;;0.95;;
64225;SDS011;50545;56.064;26.178;2022-11-14T07:43:41;1.92;;;1.35;;
64225;SDS011;50545;56.064;26.178;2022-11-14T07:46:12;1.08;;;1.02;;
64225;SDS011;50545;56.064;26.178;2022-11-14T07:48:41;1.67;;;1.33;;
64225;SDS011;50545;56.064;26.178;2022-11-14T07:51:11;2.55;;;1.20;;
64225;SDS011;50545;56.064;26.178;2022-11-14T07:53:42;2.10;;;1.20;;
64225;SDS011;50545;56.064;26.178;2022-11-14T07:56:09;1.23;;;1.13;;
64225;SDS011;50545;56.064;26.178;2022-11-14T07:58:37;1.27;;;1.17;;
64225;SDS011;50545;56.064;26.178;2022-11-14T08:01:06;1.23;;;1.13;;
64225;SDS011;50545;56.064;26.178;2022-11-14T08:03:35;1.80;;;1.25;;
64225;SDS011;50545;56.064;26.178;2022-11-14T08:06:11;1.95;;;1.20;;
64225;SDS011;50545;56.064;26.178;2022-11-14T08:08:39;0.75;;;0.75;;
64225;SDS011;50545;56.064;26.178;2022-11-14T08:11:07;1.15;;;1.02;;
64225;SDS011;50545;56.064;26.178;2022-11-14T08:13:34;3.78;;;2.25;;
64225;SDS011;50545;56.064;26.178;2022-11-14T08:16:05;1.40;;;1.30;;
64225;SDS011;50545;56.064;26.178;2022-11-14T08:18:38;2.13;;;1.17;;
64225;SDS011;50545;56.064;26.178;2022-11-14T08:21:06;1.77;;;1.45;;
64225;SDS011;50545;56.064;26.178;2022-11-14T08:23:34;1.55;;;1.33;;
64225;SDS011;50545;56.064;26.178;2022-11-14T08:26:01;1.42;;;1.30;;
64225;SDS011;50545;56.064;26.178;2022-11-14T08:28:28;1.50;;;1.25;;
64225;SDS011;50545;56.064;26.178;2022-11-14T08:30:59;1.50;;;1.40;;
64225;SDS011;50545;56.064;26.178;2022-11-14T08:33:28;1.50;;;1.40;;
64225;SDS011;50545;56.064;26.178;2022-11-14T08:35:59;1.42;;;1.33;;
64225;SDS011;50545;56.064;26.178;2022-11-14T08:38:27;1.33;;;1.23;;
64225;SDS011;50545;56.064;26.178;2022-11-14T08:40:57;1.70;;;1.40;;
64225;SDS011;50545;56.064;26.178;2022-11-14T08:43:31;1.92;;;1.35;;
64225;SDS011;50545;56.064;26.178;2022-11-14T08:45:59;2.20;;;1.60;;
64225;SDS011;50545;56.064;26.178;2022-11-14T08:48:28;3.30;;;2.05;;
64225;SDS011;50545;56.064;26.178;2022-11-14T08:50:56;2.53;;;1.63;;
64225;SDS011;50545;56.064;26.178;2022-11-14T08:53:27;2.03;;;1.58;;
64225;SDS011;50545;56.064;26.178;2022-11-14T08:55:54;2.00;;;1.80;;
64225;SDS011;50545;56.064;26.178;2022-11-14T08:58:22;1.90;;;1.58;;
64225;SDS011;50545;56.064;26.178;2022-11-14T09:00:50;2.60;;;1.60;;
64225;SDS011;50545;56.064;26.178;2022-11-14T09:03:18;1.95;;;1.60;;
64225;SDS011;50545;56.064;26.178;2022-11-14T09:05:49;1.45;;;1.35;;
64225;SDS011;50545;56.064;26.178;2022-11-14T09:08:20;5.72;;;3.20;;
64225;SDS011;50545;56.064;26.178;2022-11-14T09:10:48;4.80;;;2.75;;
64225;SDS011;50545;56.064;26.178;2022-11-14T09:13:15;3.30;;;2.05;;
64225;SDS011;50545;56.064;26.178;2022-11-14T09:15:43;1.98;;;1.55;;
64225;SDS011;50545;56.064;26.178;2022-11-14T09:18:10;2.40;;;1.77;;
64225;SDS011;50545;56.064;26.178;2022-11-14T09:20:38;2.22;;;1.80;;
64225;SDS011;50545;56.064;26.178;2022-11-14T09:23:06;3.15;;;1.73;;
64225;SDS011;50545;56.064;26.178;2022-11-14T09:25:33;1.63;;;1.52;;
64225;SDS011;50545;56.064;26.178;2022-11-14T09:28:02;1.92;;;1.52;;
64225;SDS011;50545;56.064;26.178;2022-11-14T09:30:31;2.75;;;1.90;;
64225;SDS011;50545;56.064;26.178;2022-11-14T09:32:59;1.90;;;1.70;;
64225;SDS011;50545;56.064;26.178;2022-11-14T09:35:35;2.75;;;1.95;;
64225;SDS011;50545;56.064;26.178;2022-11-14T09:38:07;2.50;;;1.77;;
64225;SDS011;50545;56.064;26.178;2022-11-14T09:40:51;3.75;;;2.20;;
64225;SDS011;50545;56.064;26.178;2022-11-14T09:46:27;1.30;;;1.20;;
64225;SDS011;50545;56.064;26.178;2022-11-14T09:49:02;2.40;;;1.60;;
64225;SDS011;50545;56.064;26.178;2022-11-14T09:51:36;1.83;;;1.40;;
64225;SDS011;50545;56.064;26.178;2022-11-14T09:56:43;1.73;;;1.48;;
64225;SDS011;50545;56.064;26.178;2022-11-14T09:59:11;1.98;;;1.45;;
64225;SDS011;50545;56.064;26.178;2022-11-14T10:01:45;1.83;;;1.50;;
64225;SDS011;50545;56.064;26.178;2022-11-14T10:04:18;2.85;;;1.90;;
64225;SDS011;50545;56.064;26.178;2022-11-14T10:12:21;2.47;;;1.73;;
64225;SDS011;50545;56.064;26.178;2022-11-14T10:18:02;1.73;;;1.55;;
64225;SDS011;50545;56.064;26.178;2022-11-14T10:20:50;5.15;;;1.67;;
64225;SDS011;50545;56.064;26.178;2022-11-14T10:26:29;1.30;;;1.20;;
64225;SDS011;50545;56.064;26.178;2022-11-14T10:29:17;2.90;;;1.60;;
64225;SDS011;50545;56.064;26.178;2022-11-14T10:35:18;1.00;;;1.00;;
64225;SDS011;50545;56.064;26.178;2022-11-14T10:40:43;1.20;;;1.10;;
64225;SDS011;50545;56.064;26.178;2022-11-14T10:46:12;0.85;;;0.85;;
64225;SDS011;50545;56.064;26.178;2022-11-14T10:48:51;0.93;;;0.90;;
64225;SDS011;50545;56.064;26.178;2022-11-14T10:51:27;1.38;;;1.17;;
64225;SDS011;50545;56.064;26.178;2022-11-14T10:54:04;2.03;;;1.20;;
64225;SDS011;50545;56.064;26.178;2022-11-14T10:56:45;1.30;;;1.20;;
64225;SDS011;50545;56.064;26.178;2022-11-14T10:59:13;1.13;;;1.00;;
64225;SDS011;50545;56.064;26.178;2022-11-14T11:01:42;2.50;;;1.52;;
64225;SDS011;50545;56.064;26.178;2022-11-14T11:04:21;1.70;;;1.10;;
64225;SDS011;50545;56.064;26.178;2022-11-14T11:06:54;1.48;;;1.33;;
64225;SDS011;50545;56.064;26.178;2022-11-14T11:09:34;1.63;;;1.38;;
64225;SDS011;50545;56.064;26.178;2022-11-14T11:20:43;1.30;;;1.20;;
64225;SDS011;50545;56.064;26.178;2022-11-14T11:23:26;1.05;;;0.85;;
64225;SDS011;50545;56.064;26.178;2022-11-14T11:25:58;1.52;;;1.30;;
64225;SDS011;50545;56.064;26.178;2022-11-14T11:28:34;1.45;;;1.20;;
64225;SDS011;50545;56.064;26.178;2022-11-14T11:31:06;2.10;;;0.98;;
64225;SDS011;50545;56.064;26.178;2022-11-14T11:33:35;2.08;;;1.25;;
64225;SDS011;50545;56.064;26.178;2022-11-14T11:36:05;1.50;;;1.35;;
64225;SDS011;50545;56.064;26.178;2022-11-14T11:38:39;1.40;;;1.30;;
64225;SDS011;50545;56.064;26.178;2022-11-14T11:41:27;1.30;;;1.20;;
64225;SDS011;50545;56.064;26.178;2022-11-14T11:44:22;1.25;;;1.13;;
64225;SDS011;50545;56.064;26.178;2022-11-14T11:46:58;1.35;;;1.17;;
64225;SDS011;50545;56.064;26.178;2022-11-14T11:49:31;1.73;;;1.43;;
64225;SDS011;50545;56.064;26.178;2022-11-14T11:52:04;2.00;;;1.35;;
64225;SDS011;50545;56.064;26.178;2022-11-14T11:54:59;1.30;;;1.20;;
64225;SDS011;50545;56.064;26.178;2022-11-14T11:57:39;1.15;;;1.05;;
64225;SDS011;50545;56.064;26.178;2022-11-14T12:00:28;2.00;;;1.20;;
64225;SDS011;50545;56.064;26.178;2022-11-14T12:02:55;3.42;;;1.20;;
64225;SDS011;50545;56.064;26.178;2022-11-14T12:08:36;1.33;;;1.23;;
64225;SDS011;50545;56.064;26.178;2022-11-14T12:11:08;2.20;;;1.40;;
64225;SDS011;50545;56.064;26.178;2022-11-14T12:13:44;1.98;;;1.48;;
64225;SDS011;50545;56.064;26.178;2022-11-14T12:16:36;3.05;;;1.48;;
64225;SDS011;50545;56.064;26.178;2022-11-14T12:27:17;2.28;;;1.50;;
64225;SDS011;50545;56.064;26.178;2022-11-14T12:29:54;2.07;;;1.53;;
64225;SDS011;50545;56.064;26.178;2022-11-14T12:32:29;2.63;;;1.73;;
64225;SDS011;50545;56.064;26.178;2022-11-14T12:34:58;7.85;;;4.50;;
64225;SDS011;50545;56.064;26.178;2022-11-14T12:37:34;7.47;;;4.70;;
64225;SDS011;50545;56.064;26.178;2022-11-14T12:42:55;6.22;;;4.10;;
64225;SDS011;50545;56.064;26.178;2022-11-14T12:50:52;18.98;;;16.70;;
64225;SDS011;50545;56.064;26.178;2022-11-14T12:59:00;15.05;;;6.32;;
64225;SDS011;50545;56.064;26.178;2022-11-14T13:01:41;7.75;;;4.50;;
64225;SDS011;50545;56.064;26.178;2022-11-14T13:10:10;4.05;;;2.75;;
64225;SDS011;50545;56.064;26.178;2022-11-14T13:16:02;6.95;;;4.20;;
64225;SDS011;50545;56.064;26.178;2022-11-14T13:18:55;4.47;;;2.35;;
64225;SDS011;50545;56.064;26.178;2022-11-14T13:25:30;5.57;;;2.90;;
64225;SDS011;50545;56.064;26.178;2022-11-14T13:27:45;3.75;;;2.22;;
64225;SDS011;50545;56.064;26.178;2022-11-14T13:33:51;3.85;;;2.45;;
64225;SDS011;50545;56.064;26.178;2022-11-14T13:50:29;4.88;;;3.30;;
64225;SDS011;50545;56.064;26.178;2022-11-14T13:53:02;4.88;;;3.20;;
64225;SDS011;50545;56.064;26.178;2022-11-14T13:55:55;6.07;;;3.35;;
64225;SDS011;50545;56.064;26.178;2022-11-14T14:04:45;4.47;;;3.25;;
64225;SDS011;50545;56.064;26.178;2022-11-14T14:16:04;3.47;;;2.20;;
64225;SDS011;50545;56.064;26.178;2022-11-14T14:18:43;3.50;;;2.28;;
64225;SDS011;50545;56.064;26.178;2022-11-14T14:21:35;3.50;;;2.20;;
64225;SDS011;50545;56.064;26.178;2022-11-14T14:27:09;3.53;;;2.15;;
64225;SDS011;50545;56.064;26.178;2022-11-14T14:32:20;3.13;;;1.95;;
64225;SDS011;50545;56.064;26.178;2022-11-14T14:34:47;3.42;;;1.80;;
64225;SDS011;50545;56.064;26.178;2022-11-14T14:42:24;5.15;;;2.78;;
64225;SDS011;50545;56.064;26.178;2022-11-14T14:45:00;2.20;;;1.65;;
64225;SDS011;50545;56.064;26.178;2022-11-14T14:47:37;2.78;;;1.90;;
64225;SDS011;50545;56.064;26.178;2022-11-14T14:50:14;3.50;;;2.15;;
64225;SDS011;50545;56.064;26.178;2022-11-14T14:52:59;3.30;;;2.03;;
64225;SDS011;50545;56.064;26.178;2022-11-14T14:55:30;2.88;;;1.90;;
64225;SDS011;50545;56.064;26.178;2022-11-14T14:58:12;3.00;;;2.05;;
64225;SDS011;50545;56.064;26.178;2022-11-14T15:00:59;3.33;;;2.20;;
64225;SDS011;50545;56.064;26.178;2022-11-14T15:03:34;4.38;;;2.20;;
64225;SDS011;50545;56.064;26.178;2022-11-14T15:06:27;4.20;;;1.95;;
64225;SDS011;50545;56.064;26.178;2022-11-14T15:09:18;4.43;;;2.00;;
64225;SDS011;50545;56.064;26.178;2022-11-14T15:11:59;2.72;;;1.70;;
64225;SDS011;50545;56.064;26.178;2022-11-14T15:14:29;3.08;;;1.75;;
64225;SDS011;50545;56.064;26.178;2022-11-14T15:16:58;2.92;;;1.60;;
64225;SDS011;50545;56.064;26.178;2022-11-14T15:19:27;1.92;;;1.50;;
64225;SDS011;50545;56.064;26.178;2022-11-14T15:22:18;2.40;;;1.33;;
64225;SDS011;50545;56.064;26.178;2022-11-14T15:27:53;2.33;;;1.85;;
64225;SDS011;50545;56.064;26.178;2022-11-14T15:30:25;4.10;;;2.47;;
64225;SDS011;50545;56.064;26.178;2022-11-14T15:32:57;7.90;;;4.03;;
64225;SDS011;50545;56.064;26.178;2022-11-14T15:35:36;5.22;;;3.05;;
64225;SDS011;50545;56.064;26.178;2022-11-14T15:41:18;3.72;;;2.33;;
64225;SDS011;50545;56.064;26.178;2022-11-14T15:48:59;1.35;;;1.25;;
64225;SDS011;50545;56.064;26.178;2022-11-14T15:56:47;1.40;;;1.30;;
64225;SDS011;50545;56.064;26.178;2022-11-14T15:59:14;3.42;;;1.42;;
64225;SDS011;50545;56.064;26.178;2022-11-14T16:01:42;2.13;;;1.45;;
64225;SDS011;50545;56.064;26.178;2022-11-14T16:04:16;1.88;;;1.45;;
64225;SDS011;50545;56.064;26.178;2022-11-14T16:06:44;1.95;;;1.38;;
64225;SDS011;50545;56.064;26.178;2022-11-14T16:09:12;1.42;;;1.27;;
64225;SDS011;50545;56.064;26.178;2022-11-14T16:11:42;1.65;;;1.52;;
64225;SDS011;50545;56.064;26.178;2022-11-14T16:14:10;1.73;;;1.38;;
64225;SDS011;50545;56.064;26.178;2022-11-14T16:16:37;1.85;;;1.40;;
64225;SDS011;50545;56.064;26.178;2022-11-14T16:19:04;3.65;;;2.10;;
64225;SDS011;50545;56.064;26.178;2022-11-14T16:21:33;2.17;;;1.60;;
64225;SDS011;50545;56.064;26.178;2022-11-14T16:24:02;1.67;;;1.42;;
64225;SDS011;50545;56.064;26.178;2022-11-14T16:26:30;1.42;;;1.30;;
64225;SDS011;50545;56.064;26.178;2022-11-14T16:28:58;2.72;;;1.88;;
64225;SDS011;50545;56.064;26.178;2022-11-14T16:31:25;2.80;;;2.10;;
64225;SDS011;50545;56.064;26.178;2022-11-14T16:33:52;2.63;;;1.77;;
64225;SDS011;50545;56.064;26.178;2022-11-14T16:36:20;1.30;;;1.20;;
64225;SDS011;50545;56.064;26.178;2022-11-14T16:38:48;1.75;;;1.40;;
64225;SDS011;50545;56.064;26.178;2022-11-14T16:41:17;1.40;;;1.30;;
64225;SDS011;50545;56.064;26.178;2022-11-14T16:43:45;3.35;;;1.58;;
64225;SDS011;50545;56.064;26.178;2022-11-14T16:46:15;1.55;;;1.38;;
64225;SDS011;50545;56.064;26.178;2022-11-14T16:48:42;3.95;;;1.77;;
64225;SDS011;50545;56.064;26.178;2022-11-14T16:51:09;3.28;;;1.23;;
64225;SDS011;50545;56.064;26.178;2022-11-14T16:53:57;1.88;;;1.30;;
64225;SDS011;50545;56.064;26.178;2022-11-14T16:56:24;2.42;;;1.40;;
64225;SDS011;50545;56.064;26.178;2022-11-14T16:58:52;2.30;;;1.42;;
64225;SDS011;50545;56.064;26.178;2022-11-14T17:01:21;1.73;;;1.27;;
64225;SDS011;50545;56.064;26.178;2022-11-14T17:03:48;1.92;;;1.50;;
64225;SDS011;50545;56.064;26.178;2022-11-14T17:06:15;2.40;;;1.50;;
64225;SDS011;50545;56.064;26.178;2022-11-14T17:08:42;2.53;;;1.63;;
64225;SDS011;50545;56.064;26.178;2022-11-14T17:11:09;2.08;;;1.48;;